Time,TemperatureF,DewpointF,PressureIn,WindDirection,WindDirectionDegrees,WindSpeedMPH,WindSpeedGustMPH,Humidity,HourlyPrecipIn,Conditions,Clouds,dailyrainin,SoftwareType,DateUTC
2013-06-03 00:01:00,49.1,45.1,29.68,South,177,0.0,0.0,86,0.00,,,0.00,WeatherCatV1.15B25,2013-06-03 07:01:00,
2013-06-03 00:06:00,49.3,45.3,29.68,South,177,0.0,0.0,86,0.00,,,0.00,WeatherCatV1.15B25,2013-06-03 07:06:00,
2013-06-03 00:11:00,49.4,45.4,29.68,South,177,0.0,0.0,86,0.00,,,0.00,WeatherCatV1.15B25,2013-06-03 07:11:00,
2013-06-03 00:16:00,49.4,45.4,29.69,South,177,0.0,0.0,86,0.00,,,0.00,WeatherCatV1.15B25,2013-06-03 07:16:00,
2013-06-03 00:21:00,49.4,45.4,29.69,South,177,0.0,0.0,86,0.00,,,0.00,WeatherCatV1.15B25,2013-06-03 07:21:00,
2013-06-03 00:26:00,49.5,45.5,29.69,South,176,0.0,0.0,86,0.00,,,0.00,WeatherCatV1.15B25,2013-06-03 07:26:00,
2013-06-03 00:31:00,49.6,45.9,29.69,South,176,0.0,0.0,87,0.00,,,0.00,WeatherCatV1.15B25,2013-06-03 07:31:00,
2013-06-03 00:36:00,49.9,47.1,29.69,South,176,0.0,0.0,90,0.00,,,0.00,WeatherCatV1.15B25,2013-06-03 07:36:00,
2013-06-03 00:41:00,50.1,47.3,29.69,South,176,0.0,0.0,90,0.00,,,0.00,WeatherCatV1.15B25,2013-06-03 07:41:00,
2013-06-03 00:46:00,50.3,47.5,29.68,South,176,0.0,0.0,90,0.00,,,0.00,WeatherCatV1.15B25,2013-06-03 07:46:00,
2013-06-03 00:51:00,50.5,47.7,29.68,South,176,0.0,0.0,90,0.00,,,0.00,WeatherCatV1.15B25,2013-06-03 07:51:00,
2013-06-03 00:56:00,50.6,47.8,29.68,South,176,0.0,0.0,90,0.00,,,0.00,WeatherCatV1.15B25,2013-06-03 07:56:00,
2013-06-03 01:01:00,50.8,48.0,29.68,South,176,0.0,0.0,90,0.00,,,0.00,WeatherCatV1.15B25,2013-06-03 08:01:00,
2013-06-03 01:06:00,50.8,47.4,29.68,South,176,0.0,0.0,88,0.00,,,0.00,WeatherCatV1.15B25,2013-06-03 08:06:00,
2013-06-03 01:11:00,51.0,47.9,29.68,South,176,0.0,0.0,89,0.00,,,0.00,WeatherCatV1.15B25,2013-06-03 08:11:00,
2013-06-03 01:16:00,51.1,48.0,29.68,South,176,0.0,0.0,89,0.00,,,0.00,WeatherCatV1.15B25,2013-06-03 08:16:00,
2013-06-03 01:21:00,51.2,47.8,29.68,South,176,0.0,0.0,88,0.00,,,0.00,WeatherCatV1.15B25,2013-06-03 08:21:00,
2013-06-03 01:26:00,51.2,47.8,29.68,South,176,0.0,0.0,88,0.00,,,0.00,WeatherCatV1.15B25,2013-06-03 08:26:00,
2013-06-03 01:31:00,51.1,47.7,29.68,South,175,0.0,0.0,88,0.00,,,0.00,WeatherCatV1.15B25,2013-06-03 08:31:00,
2013-06-03 01:36:00,51.0,47.6,29.68,South,175,0.0,0.0,88,0.00,,,0.00,WeatherCatV1.15B25,2013-06-03 08:36:00,
2013-06-03 01:41:00,50.8,47.4,29.68,South,175,0.0,0.0,88,0.00,,,0.00,WeatherCatV1.15B25,2013-06-03 08:41:00,
2013-06-03 01:46:00,50.6,46.9,29.67,South,175,0.0,0.0,87,0.00,,,0.00,WeatherCatV1.15B25,2013-06-03 08:46:00,
2013-06-03 01:51:00,50.1,46.4,29.67,South,174,0.0,0.0,87,0.00,,,0.00,WeatherCatV1.15B25,2013-06-03 08:51:00,
2013-06-03 01:56:00,49.7,46.3,29.67,South,174,0.0,0.0,88,0.00,,,0.00,WeatherCatV1.15B25,2013-06-03 08:56:00,
2013-06-03 02:01:00,49.5,46.1,29.67,South,174,0.0,0.0,88,0.00,,,0.00,WeatherCatV1.15B25,2013-06-03 09:01:00,
2013-06-03 02:06:00,49.1,46.0,29.67,South,174,0.0,0.0,89,0.00,,,0.00,WeatherCatV1.15B25,2013-06-03 09:06:00,
2013-06-03 02:11:00,48.9,45.8,29.67,South,174,0.0,0.0,89,0.00,,,0.00,WeatherCatV1.15B25,2013-06-03 09:11:00,
2013-06-03 02:16:00,48.8,46.0,29.67,South,174,0.0,0.0,90,0.00,,,0.00,WeatherCatV1.15B25,2013-06-03 09:16:00,
2013-06-03 02:21:00,48.8,46.3,29.67,South,174,0.0,0.0,91,0.00,,,0.00,WeatherCatV1.15B25,2013-06-03 09:21:00,
2013-06-03 02:26:00,48.8,46.3,29.67,South,174,0.0,0.0,91,0.00,,,0.00,WeatherCatV1.15B25,2013-06-03 09:26:00,
2013-06-03 02:31:00,48.9,46.4,29.67,South,174,0.0,0.0,91,0.00,,,0.00,WeatherCatV1.15B25,2013-06-03 09:31:00,
2013-06-03 02:36:00,48.9,46.4,29.67,South,174,0.0,0.0,91,0.00,,,0.00,WeatherCatV1.15B25,2013-06-03 09:36:00,
2013-06-03 02:41:00,48.9,46.4,29.67,South,174,0.0,0.0,91,0.00,,,0.00,WeatherCatV1.15B25,2013-06-03 09:41:00,
2013-06-03 02:46:00,48.8,46.0,29.67,South,174,0.0,0.0,90,0.00,,,0.00,WeatherCatV1.15B25,2013-06-03 09:46:00,
2013-06-03 02:51:00,48.7,45.6,29.67,South,174,0.0,0.0,89,0.00,,,0.00,WeatherCatV1.15B25,2013-06-03 09:51:00,
2013-06-03 02:56:00,48.5,45.1,29.67,South,174,0.0,0.0,88,0.00,,,0.00,WeatherCatV1.15B25,2013-06-03 09:56:00,
2013-06-03 03:01:00,48.1,44.4,29.67,South,174,0.0,0.0,87,0.00,,,0.00,WeatherCatV1.15B25,2013-06-03 10:01:00,
2013-06-03 03:06:00,47.7,44.6,29.67,South,174,0.0,0.0,89,0.00,,,0.00,WeatherCatV1.15B25,2013-06-03 10:06:00,
2013-06-03 03:11:00,47.4,44.6,29.67,South,174,0.0,0.0,90,0.00,,,0.00,WeatherCatV1.15B25,2013-06-03 10:11:00,
2013-06-03 03:16:00,47.2,44.7,29.67,South,174,0.0,0.0,91,0.00,,,0.00,WeatherCatV1.15B25,2013-06-03 10:16:00,
2013-06-03 03:21:00,47.1,44.6,29.67,South,174,0.0,0.0,91,0.00,,,0.00,WeatherCatV1.15B25,2013-06-03 10:21:00,
2013-06-03 03:26:00,46.9,44.4,29.67,South,174,0.0,0.0,91,0.00,,,0.00,WeatherCatV1.15B25,2013-06-03 10:26:00,
2013-06-03 03:31:00,46.7,44.5,29.67,South,174,0.0,0.0,92,0.00,,,0.00,WeatherCatV1.15B25,2013-06-03 10:31:00,
2013-06-03 03:36:00,46.7,44.8,29.67,South,174,0.0,0.0,93,0.00,,,0.00,WeatherCatV1.15B25,2013-06-03 10:36:00,
2013-06-03 03:41:00,46.7,44.8,29.67,South,174,0.0,0.0,93,0.00,,,0.00,WeatherCatV1.15B25,2013-06-03 10:41:00,
2013-06-03 03:46:00,46.6,44.7,29.67,South,174,0.0,1.0,93,0.00,,,0.00,WeatherCatV1.15B25,2013-06-03 10:46:00,
2013-06-03 03:51:00,46.5,44.9,29.67,South,174,0.0,0.0,94,0.00,,,0.00,WeatherCatV1.15B25,2013-06-03 10:51:00,
2013-06-03 03:56:00,46.5,44.9,29.67,South,174,0.0,0.0,94,0.00,,,0.00,WeatherCatV1.15B25,2013-06-03 10:56:00,
2013-06-03 04:01:00,46.5,44.9,29.67,South,174,0.0,0.0,94,0.00,,,0.00,WeatherCatV1.15B25,2013-06-03 11:01:00,
2013-06-03 04:06:00,46.5,45.1,29.67,South,174,0.0,0.0,95,0.00,,,0.00,WeatherCatV1.15B25,2013-06-03 11:06:00,
2013-06-03 04:11:00,46.6,45.2,29.67,South,174,0.0,0.0,95,0.00,,,0.00,WeatherCatV1.15B25,2013-06-03 11:11:00,
2013-06-03 04:16:00,46.5,45.1,29.67,South,174,0.0,0.0,95,0.00,,,0.00,WeatherCatV1.15B25,2013-06-03 11:16:00,
2013-06-03 04:21:00,46.5,45.1,29.67,South,174,0.0,0.0,95,0.00,,,0.00,WeatherCatV1.15B25,2013-06-03 11:21:00,
2013-06-03 04:26:00,46.5,45.1,29.67,South,174,0.0,0.0,95,0.00,,,0.00,WeatherCatV1.15B25,2013-06-03 11:26:00,
2013-06-03 04:31:00,46.4,45.0,29.67,South,174,0.0,0.0,95,0.00,,,0.00,WeatherCatV1.15B25,2013-06-03 11:31:00,
2013-06-03 04:36:00,46.3,44.9,29.67,South,174,0.0,0.0,95,0.00,,,0.00,WeatherCatV1.15B25,2013-06-03 11:36:00,
2013-06-03 04:41:00,46.2,44.8,29.67,South,174,0.0,0.0,95,0.00,,,0.00,WeatherCatV1.15B25,2013-06-03 11:41:00,
2013-06-03 04:46:00,46.1,44.7,29.67,South,174,0.0,0.0,95,0.00,,,0.00,WeatherCatV1.15B25,2013-06-03 11:46:00,
2013-06-03 04:51:00,45.9,44.3,29.67,South,174,0.0,0.0,94,0.00,,,0.00,WeatherCatV1.15B25,2013-06-03 11:51:00,
2013-06-03 04:56:00,45.8,44.4,29.67,South,174,0.0,0.0,95,0.00,,,0.00,WeatherCatV1.15B25,2013-06-03 11:56:00,
2013-06-03 05:01:00,45.9,44.5,29.67,South,174,0.0,0.0,95,0.00,,,0.00,WeatherCatV1.15B25,2013-06-03 12:01:00,
2013-06-03 05:06:00,45.9,44.5,29.67,South,174,0.0,0.0,95,0.00,,,0.00,WeatherCatV1.15B25,2013-06-03 12:06:00,
2013-06-03 05:11:00,46.0,44.9,29.67,South,174,0.0,0.0,96,0.00,,,0.00,WeatherCatV1.15B25,2013-06-03 12:11:00,
2013-06-03 05:16:00,46.1,45.0,29.67,South,174,0.0,0.0,96,0.00,,,0.00,WeatherCatV1.15B25,2013-06-03 12:16:00,
2013-06-03 05:21:00,46.0,44.6,29.67,South,174,0.0,0.0,95,0.00,,,0.00,WeatherCatV1.15B25,2013-06-03 12:21:00,
2013-06-03 05:26:00,45.7,44.1,29.67,South,174,0.0,0.0,94,0.00,,,0.00,WeatherCatV1.15B25,2013-06-03 12:26:00,
2013-06-03 05:31:00,45.6,44.0,29.68,South,174,0.0,0.0,94,0.00,,,0.00,WeatherCatV1.15B25,2013-06-03 12:31:00,
2013-06-03 05:36:00,45.5,44.2,29.68,South,174,0.0,0.0,95,0.00,,,0.00,WeatherCatV1.15B25,2013-06-03 12:36:00,
2013-06-03 05:41:00,45.5,44.2,29.68,South,174,0.0,0.0,95,0.00,,,0.00,WeatherCatV1.15B25,2013-06-03 12:41:00,
2013-06-03 05:46:00,45.6,44.3,29.68,South,174,0.0,0.0,95,0.00,,,0.00,WeatherCatV1.15B25,2013-06-03 12:46:00,
2013-06-03 05:51:00,45.7,44.6,29.68,South,174,0.0,0.0,96,0.00,,,0.00,WeatherCatV1.15B25,2013-06-03 12:51:00,
2013-06-03 05:56:00,45.8,44.7,29.68,South,174,0.0,0.0,96,0.00,,,0.00,WeatherCatV1.15B25,2013-06-03 12:56:00,
2013-06-03 06:01:00,45.8,44.7,29.68,South,174,0.0,0.0,96,0.00,,,0.00,WeatherCatV1.15B25,2013-06-03 13:01:00,
2013-06-03 06:06:00,45.9,44.8,29.68,South,174,0.0,0.0,96,0.00,,,0.00,WeatherCatV1.15B25,2013-06-03 13:06:00,
2013-06-03 06:11:00,45.9,44.8,29.68,South,174,0.0,0.0,96,0.00,,,0.00,WeatherCatV1.15B25,2013-06-03 13:11:00,
2013-06-03 06:16:00,45.9,44.8,29.69,South,174,0.0,0.0,96,0.00,,,0.00,WeatherCatV1.15B25,2013-06-03 13:16:00,
2013-06-03 06:21:00,45.8,44.7,29.69,South,174,0.0,0.0,96,0.00,,,0.00,WeatherCatV1.15B25,2013-06-03 13:21:00,
2013-06-03 06:26:00,45.9,44.8,29.69,South,174,0.0,0.0,96,0.00,,,0.00,WeatherCatV1.15B25,2013-06-03 13:26:00,
2013-06-03 06:31:00,45.9,44.8,29.69,South,174,0.0,0.0,96,0.00,,,0.00,WeatherCatV1.15B25,2013-06-03 13:31:00,
2013-06-03 06:36:00,45.9,44.8,29.69,South,174,0.0,0.0,96,0.00,,,0.00,WeatherCatV1.15B25,2013-06-03 13:36:00,
2013-06-03 06:41:00,46.0,44.9,29.69,South,174,0.0,0.0,96,0.00,,,0.00,WeatherCatV1.15B25,2013-06-03 13:41:00,
2013-06-03 06:46:00,46.2,45.1,29.70,South,174,0.0,1.0,96,0.00,,,0.00,WeatherCatV1.15B25,2013-06-03 13:46:00,
2013-06-03 06:51:00,46.2,45.1,29.70,South,174,0.0,0.0,96,0.00,,,0.00,WeatherCatV1.15B25,2013-06-03 13:51:00,
2013-06-03 06:56:00,46.2,45.1,29.70,South,174,0.0,0.0,96,0.00,,,0.00,WeatherCatV1.15B25,2013-06-03 13:56:00,
2013-06-03 07:01:00,46.2,45.1,29.70,South,174,0.0,0.0,96,0.00,,,0.00,WeatherCatV1.15B25,2013-06-03 14:01:00,
2013-06-03 07:06:00,46.3,45.5,29.70,South,174,0.0,0.0,97,0.00,,,0.00,WeatherCatV1.15B25,2013-06-03 14:06:00,
2013-06-03 07:11:00,46.4,45.3,29.70,South,174,0.0,0.0,96,0.00,,,0.00,WeatherCatV1.15B25,2013-06-03 14:11:00,
2013-06-03 07:16:00,46.4,45.6,29.71,South,174,0.0,0.0,97,0.00,,,0.00,WeatherCatV1.15B25,2013-06-03 14:16:00,
2013-06-03 07:21:00,46.5,45.7,29.71,South,174,0.0,0.0,97,0.00,,,0.00,WeatherCatV1.15B25,2013-06-03 14:21:00,
2013-06-03 07:26:00,46.6,45.8,29.71,South,174,0.0,0.0,97,0.00,,,0.00,WeatherCatV1.15B25,2013-06-03 14:26:00,
2013-06-03 07:31:00,46.7,45.9,29.71,South,174,0.0,0.0,97,0.00,,,0.00,WeatherCatV1.15B25,2013-06-03 14:31:00,
2013-06-03 07:36:00,46.9,46.1,29.71,South,174,0.0,0.0,97,0.00,,,0.00,WeatherCatV1.15B25,2013-06-03 14:36:00,
2013-06-03 07:41:00,47.0,46.2,29.71,South,174,0.0,0.0,97,0.00,,,0.00,WeatherCatV1.15B25,2013-06-03 14:41:00,
2013-06-03 07:46:00,47.2,46.4,29.72,South,174,0.0,1.0,97,0.00,,,0.00,WeatherCatV1.15B25,2013-06-03 14:46:00,
2013-06-03 07:51:00,47.4,46.6,29.72,South,174,0.0,0.0,97,0.00,,,0.00,WeatherCatV1.15B25,2013-06-03 14:51:00,
2013-06-03 07:56:00,47.5,46.7,29.72,South,174,0.0,1.0,97,0.00,,,0.00,WeatherCatV1.15B25,2013-06-03 14:56:00,
2013-06-03 08:01:00,47.6,46.8,29.73,South,174,0.0,0.0,97,0.00,,,0.00,WeatherCatV1.15B25,2013-06-03 15:01:00,
2013-06-03 08:06:00,47.7,46.9,29.73,South,174,0.0,0.0,97,0.00,,,0.00,WeatherCatV1.15B25,2013-06-03 15:06:00,
2013-06-03 08:11:00,47.9,47.1,29.73,South,174,0.0,0.0,97,0.00,,,0.00,WeatherCatV1.15B25,2013-06-03 15:11:00,
2013-06-03 08:16:00,48.1,47.3,29.74,South,174,0.0,0.0,97,0.00,,,0.00,WeatherCatV1.15B25,2013-06-03 15:16:00,
2013-06-03 08:21:00,48.2,47.4,29.74,South,174,0.0,0.0,97,0.00,,,0.00,WeatherCatV1.15B25,2013-06-03 15:21:00,
2013-06-03 08:26:00,48.4,47.6,29.74,South,174,0.0,0.0,97,0.00,,,0.00,WeatherCatV1.15B25,2013-06-03 15:26:00,
2013-06-03 08:31:00,48.5,47.7,29.74,South,174,0.0,0.0,97,0.00,,,0.00,WeatherCatV1.15B25,2013-06-03 15:31:00,
2013-06-03 08:36:00,48.6,47.8,29.74,SSE,168,0.0,2.0,97,0.00,,,0.00,WeatherCatV1.15B25,2013-06-03 15:36:00,
2013-06-03 08:41:00,48.6,47.8,29.74,SSE,168,0.0,1.0,97,0.00,,,0.00,WeatherCatV1.15B25,2013-06-03 15:41:00,
2013-06-03 08:46:00,49.0,48.2,29.74,SSE,168,0.0,0.0,97,0.00,,,0.00,WeatherCatV1.15B25,2013-06-03 15:46:00,
2013-06-03 08:51:00,49.2,48.4,29.74,SSE,168,0.0,0.0,97,0.00,,,0.00,WeatherCatV1.15B25,2013-06-03 15:51:00,
2013-06-03 08:56:00,49.4,48.6,29.74,SSE,168,0.0,1.0,97,0.00,,,0.00,WeatherCatV1.15B25,2013-06-03 15:56:00,
2013-06-03 09:01:00,49.5,48.7,29.74,SSE,168,0.0,1.0,97,0.00,,,0.00,WeatherCatV1.15B25,2013-06-03 16:01:00,
2013-06-03 09:06:00,49.6,48.8,29.74,SSE,168,0.0,0.0,97,0.00,,,0.00,WeatherCatV1.15B25,2013-06-03 16:06:00,
2013-06-03 09:11:00,50.0,49.2,29.74,SSE,168,0.0,0.0,97,0.00,,,0.00,WeatherCatV1.15B25,2013-06-03 16:11:00,
2013-06-03 09:16:00,50.2,49.1,29.75,SSE,167,0.0,0.0,96,0.00,,,0.00,WeatherCatV1.15B25,2013-06-03 16:16:00,
2013-06-03 09:21:00,50.4,49.0,29.75,SSE,162,0.0,0.0,95,0.00,,,0.00,WeatherCatV1.15B25,2013-06-03 16:21:00,
2013-06-03 09:26:00,50.7,49.3,29.75,SSE,148,0.0,1.0,95,0.00,,,0.00,WeatherCatV1.15B25,2013-06-03 16:26:00,
2013-06-03 09:31:00,50.8,49.1,29.75,SSE,155,0.0,0.0,94,0.00,,,0.00,WeatherCatV1.15B25,2013-06-03 16:31:00,
2013-06-03 09:36:00,51.2,49.5,29.75,SSE,155,1.0,1.0,94,0.00,,,0.00,WeatherCatV1.15B25,2013-06-03 16:36:00,
2013-06-03 09:41:00,51.6,49.6,29.75,SSE,158,0.0,2.0,93,0.00,,,0.00,WeatherCatV1.15B25,2013-06-03 16:41:00,
2013-06-03 09:46:00,51.8,49.5,29.76,SSE,154,0.0,0.0,92,0.00,,,0.00,WeatherCatV1.15B25,2013-06-03 16:46:00,
2013-06-03 09:51:00,51.9,49.6,29.76,SSE,154,0.0,1.0,92,0.00,,,0.00,WeatherCatV1.15B25,2013-06-03 16:51:00,
2013-06-03 09:56:00,52.0,49.5,29.76,SSE,153,1.0,2.0,91,0.00,,,0.00,WeatherCatV1.15B25,2013-06-03 16:56:00,
2013-06-03 10:01:00,52.2,49.9,29.76,SSE,160,1.0,2.0,92,0.00,,,0.00,WeatherCatV1.15B25,2013-06-03 17:01:00,
2013-06-03 10:06:00,52.3,49.8,29.76,SSE,156,0.0,1.0,91,0.00,,,0.00,WeatherCatV1.15B25,2013-06-03 17:06:00,
2013-06-03 10:11:00,52.6,50.0,29.76,SSE,158,0.0,1.0,91,0.00,,,0.00,WeatherCatV1.15B25,2013-06-03 17:11:00,
2013-06-03 10:16:00,52.9,50.0,29.76,SSE,158,0.0,1.0,90,0.00,,,0.00,WeatherCatV1.15B25,2013-06-03 17:16:00,
2013-06-03 10:21:00,53.5,50.6,29.76,SSE,152,0.0,1.0,90,0.00,,,0.00,WeatherCatV1.15B25,2013-06-03 17:21:00,
2013-06-03 10:26:00,54.1,50.9,29.76,ESE,106,0.0,1.0,89,0.00,,,0.00,WeatherCatV1.15B25,2013-06-03 17:26:00,
2013-06-03 10:31:00,54.8,51.0,29.77,SSE,159,0.0,0.0,87,0.00,,,0.00,WeatherCatV1.15B25,2013-06-03 17:31:00,
2013-06-03 10:36:00,55.4,50.6,29.77,SSE,152,0.0,2.0,84,0.00,,,0.00,WeatherCatV1.15B25,2013-06-03 17:36:00,
2013-06-03 10:41:00,55.5,51.1,29.77,SSE,148,0.0,1.0,85,0.00,,,0.00,WeatherCatV1.15B25,2013-06-03 17:41:00,
2013-06-03 10:46:00,56.0,51.2,29.77,SE,142,0.0,1.0,84,0.00,,,0.00,WeatherCatV1.15B25,2013-06-03 17:46:00,
2013-06-03 10:51:00,56.4,51.6,29.77,SSE,168,1.0,2.0,84,0.00,,,0.00,WeatherCatV1.15B25,2013-06-03 17:51:00,
2013-06-03 10:56:00,57.3,51.8,29.77,SE,144,0.0,2.0,82,0.00,,,0.00,WeatherCatV1.15B25,2013-06-03 17:56:00,
2013-06-03 11:01:00,57.9,52.1,29.77,SE,129,2.0,2.0,81,0.00,,,0.00,WeatherCatV1.15B25,2013-06-03 18:01:00,
2013-06-03 11:06:00,58.4,51.9,29.77,SE,125,0.0,1.0,79,0.00,,,0.00,WeatherCatV1.15B25,2013-06-03 18:06:00,
2013-06-03 11:11:00,58.6,52.1,29.77,ENE,59,0.0,1.0,79,0.00,,,0.00,WeatherCatV1.15B25,2013-06-03 18:11:00,
2013-06-03 11:16:00,58.7,52.2,29.78,ESE,106,0.0,1.0,79,0.00,,,0.00,WeatherCatV1.15B25,2013-06-03 18:16:00,
2013-06-03 11:21:00,59.2,52.0,29.78,SE,144,0.0,0.0,77,0.00,,,0.00,WeatherCatV1.15B25,2013-06-03 18:21:00,
2013-06-03 11:26:00,59.8,52.6,29.78,SE,134,2.0,3.0,77,0.00,,,0.00,WeatherCatV1.15B25,2013-06-03 18:26:00,
2013-06-03 11:31:00,60.4,52.8,29.79,SE,146,0.0,1.0,76,0.00,,,0.00,WeatherCatV1.15B25,2013-06-03 18:31:00,
2013-06-03 11:36:00,61.1,52.7,29.79,SE,133,0.0,1.0,74,0.00,,,0.00,WeatherCatV1.15B25,2013-06-03 18:36:00,
2013-06-03 11:41:00,61.5,52.4,29.79,ESE,121,0.0,2.0,72,0.00,,,0.00,WeatherCatV1.15B25,2013-06-03 18:41:00,
2013-06-03 11:46:00,61.8,53.0,29.79,SSE,152,0.0,1.0,73,0.00,,,0.00,WeatherCatV1.15B25,2013-06-03 18:46:00,
2013-06-03 11:51:00,62.1,53.0,29.79,SE,135,0.0,2.0,72,0.00,,,0.00,WeatherCatV1.15B25,2013-06-03 18:51:00,
2013-06-03 11:56:00,62.6,52.7,29.79,SE,142,0.0,0.0,70,0.00,,,0.00,WeatherCatV1.15B25,2013-06-03 18:56:00,
2013-06-03 12:01:00,63.2,52.9,29.79,SE,142,0.0,1.0,69,0.00,,,0.00,WeatherCatV1.15B25,2013-06-03 19:01:00,
2013-06-03 12:06:00,63.6,52.8,29.79,ESE,115,0.0,1.0,68,0.00,,,0.00,WeatherCatV1.15B25,2013-06-03 19:06:00,
2013-06-03 12:11:00,64.2,53.4,29.79,SE,143,0.0,3.0,68,0.00,,,0.00,WeatherCatV1.15B25,2013-06-03 19:11:00,
2013-06-03 12:16:00,64.6,53.0,29.79,SE,127,0.0,1.0,66,0.00,,,0.00,WeatherCatV1.15B25,2013-06-03 19:16:00,
2013-06-03 12:21:00,64.1,52.5,29.79,SE,127,2.0,2.0,66,0.00,,,0.00,WeatherCatV1.15B25,2013-06-03 19:21:00,
2013-06-03 12:26:00,64.0,52.8,29.79,SSE,154,0.0,1.0,67,0.00,,,0.00,WeatherCatV1.15B25,2013-06-03 19:26:00,
2013-06-03 12:31:00,64.4,54.0,29.79,NE,42,1.0,2.0,69,0.00,,,0.00,WeatherCatV1.15B25,2013-06-03 19:31:00,
2013-06-03 12:36:00,64.7,53.1,29.79,NNE,19,0.0,1.0,66,0.00,,,0.00,WeatherCatV1.15B25,2013-06-03 19:36:00,
2013-06-03 12:41:00,65.3,53.2,29.79,North,358,2.0,3.0,65,0.00,,,0.00,WeatherCatV1.15B25,2013-06-03 19:41:00,
2013-06-03 12:46:00,65.0,52.5,29.79,SE,126,2.0,2.0,64,0.00,,,0.00,WeatherCatV1.15B25,2013-06-03 19:46:00,
2013-06-03 12:51:00,64.7,52.7,29.79,South,171,2.0,4.0,65,0.00,,,0.00,WeatherCatV1.15B25,2013-06-03 19:51:00,
2013-06-03 12:56:00,64.9,53.3,29.79,NNE,23,0.0,1.0,66,0.00,,,0.00,WeatherCatV1.15B25,2013-06-03 19:56:00,
2013-06-03 13:01:00,64.9,52.8,29.79,SSE,159,0.0,2.0,65,0.00,,,0.00,WeatherCatV1.15B25,2013-06-03 20:01:00,
2013-06-03 13:06:00,65.5,53.8,29.79,SE,129,1.0,2.0,66,0.00,,,0.00,WeatherCatV1.15B25,2013-06-03 20:06:00,
2013-06-03 13:11:00,65.8,52.8,29.79,NNW,334,0.0,3.0,63,0.00,,,0.00,WeatherCatV1.15B25,2013-06-03 20:11:00,
2013-06-03 13:16:00,66.0,53.0,29.80,SE,135,1.0,2.0,63,0.00,,,0.00,WeatherCatV1.15B25,2013-06-03 20:16:00,
2013-06-03 13:21:00,65.6,52.7,29.80,SSE,152,0.0,3.0,63,0.00,,,0.00,WeatherCatV1.15B25,2013-06-03 20:21:00,
2013-06-03 13:26:00,65.4,52.9,29.80,SE,125,1.0,2.0,64,0.00,,,0.00,WeatherCatV1.15B25,2013-06-03 20:26:00,
2013-06-03 13:30:00,65.5,52.6,29.80,ESE,102,0.0,2.0,63,0.00,,,0.00,WeatherCatV1.15B25,2013-06-03 20:30:00,
2013-06-03 13:35:00,65.5,52.1,29.80,NNE,13,0.0,3.0,62,0.00,,,0.00,WeatherCatV1.15B25,2013-06-03 20:35:00,
2013-06-03 13:40:00,65.6,52.7,29.80,ESE,117,1.0,2.0,63,0.00,,,0.00,WeatherCatV1.15B25,2013-06-03 20:40:00,
2013-06-03 13:45:00,65.4,52.5,29.80,SE,133,1.0,3.0,63,0.00,,,0.00,WeatherCatV1.15B25,2013-06-03 20:45:00,
2013-06-03 13:50:00,64.7,52.2,29.80,ESE,105,0.0,1.0,64,0.00,,,0.00,WeatherCatV1.15B25,2013-06-03 20:50:00,
2013-06-03 13:55:00,64.6,52.6,29.80,ESE,115,0.0,1.0,65,0.00,,,0.00,WeatherCatV1.15B25,2013-06-03 20:55:00,
2013-06-03 14:00:00,64.3,52.3,29.81,SE,124,0.0,4.0,65,0.00,,,0.00,WeatherCatV1.15B25,2013-06-03 21:00:00,
2013-06-03 14:05:00,64.0,52.8,29.81,SE,137,1.0,3.0,67,0.00,,,0.00,WeatherCatV1.15B25,2013-06-03 21:05:00,
2013-06-03 14:10:00,64.2,52.2,29.81,ENE,69,0.0,2.0,65,0.00,,,0.00,WeatherCatV1.15B25,2013-06-03 21:10:00,
2013-06-03 14:15:00,64.2,52.2,29.81,SE,137,1.0,2.0,65,0.00,,,0.00,WeatherCatV1.15B25,2013-06-03 21:15:00,
2013-06-03 14:20:00,63.8,52.2,29.81,SSE,150,2.0,2.0,66,0.00,,,0.00,WeatherCatV1.15B25,2013-06-03 21:20:00,
2013-06-03 14:25:00,63.8,52.2,29.81,SSE,155,2.0,2.0,66,0.00,,,0.00,WeatherCatV1.15B25,2013-06-03 21:25:00,
2013-06-03 14:30:00,64.1,52.5,29.81,SE,135,1.0,1.0,66,0.00,,,0.00,WeatherCatV1.15B25,2013-06-03 21:30:00,
2013-06-03 14:35:00,63.8,52.6,29.81,SE,136,1.0,2.0,67,0.00,,,0.00,WeatherCatV1.15B25,2013-06-03 21:35:00,
2013-06-03 14:40:00,63.4,52.2,29.81,ESE,123,2.0,3.0,67,0.00,,,0.00,WeatherCatV1.15B25,2013-06-03 21:40:00,
2013-06-03 14:45:00,63.1,52.0,29.81,East,100,0.0,2.0,67,0.00,,,0.00,WeatherCatV1.15B25,2013-06-03 21:45:00,
2013-06-03 14:50:00,62.6,51.5,29.81,SE,127,0.0,2.0,67,0.00,,,0.00,WeatherCatV1.15B25,2013-06-03 21:50:00,
2013-06-03 14:55:00,62.3,51.6,29.81,ESE,113,0.0,3.0,68,0.00,,,0.00,WeatherCatV1.15B25,2013-06-03 21:55:00,
2013-06-03 15:00:00,62.2,51.5,29.81,South,191,0.0,1.0,68,0.00,,,0.00,WeatherCatV1.15B25,2013-06-03 22:00:00,
2013-06-03 15:05:00,62.1,52.2,29.81,SE,129,1.0,1.0,70,0.00,,,0.00,WeatherCatV1.15B25,2013-06-03 22:05:00,
2013-06-03 15:10:00,62.1,51.8,29.81,SE,145,1.0,1.0,69,0.00,,,0.00,WeatherCatV1.15B25,2013-06-03 22:10:00,
2013-06-03 15:15:00,62.4,52.1,29.81,SSE,150,0.0,1.0,69,0.00,,,0.00,WeatherCatV1.15B25,2013-06-03 22:15:00,
2013-06-03 15:20:00,62.5,51.8,29.81,SE,146,0.0,0.0,68,0.00,,,0.00,WeatherCatV1.15B25,2013-06-03 22:20:00,
2013-06-03 15:25:00,62.3,51.6,29.81,ESE,107,0.0,1.0,68,0.00,,,0.00,WeatherCatV1.15B25,2013-06-03 22:25:00,
2013-06-03 15:30:00,62.3,51.6,29.81,SE,144,2.0,2.0,68,0.00,,,0.00,WeatherCatV1.15B25,2013-06-03 22:30:00,
2013-06-03 15:35:00,62.3,52.0,29.81,SSE,151,0.0,1.0,69,0.00,,,0.00,WeatherCatV1.15B25,2013-06-03 22:35:00,
2013-06-03 15:40:00,62.3,51.2,29.81,SSW,200,0.0,0.0,67,0.00,,,0.00,WeatherCatV1.15B25,2013-06-03 22:40:00,
2013-06-03 15:45:00,62.2,51.5,29.81,SE,128,0.0,1.0,68,0.00,,,0.00,WeatherCatV1.15B25,2013-06-03 22:45:00,
2013-06-03 15:50:00,62.0,51.3,29.81,ESE,123,1.0,2.0,68,0.00,,,0.00,WeatherCatV1.15B25,2013-06-03 22:50:00,
2013-06-03 15:55:00,61.7,51.0,29.81,ENE,59,0.0,2.0,68,0.00,,,0.00,WeatherCatV1.15B25,2013-06-03 22:55:00,
2013-06-03 16:00:00,61.2,50.9,29.81,ESE,123,0.0,2.0,69,0.00,,,0.00,WeatherCatV1.15B25,2013-06-03 23:00:00,
2013-06-03 16:05:00,60.9,51.0,29.81,SE,143,2.0,2.0,70,0.00,,,0.00,WeatherCatV1.15B25,2013-06-03 23:05:00,
2013-06-03 16:10:00,60.4,50.6,29.81,SSE,150,0.0,1.0,70,0.00,,,0.00,WeatherCatV1.15B25,2013-06-03 23:10:00,
2013-06-03 16:15:00,60.2,50.8,29.81,SE,146,0.0,2.0,71,0.00,,,0.00,WeatherCatV1.15B25,2013-06-03 23:15:00,
2013-06-03 16:20:00,59.9,50.5,29.81,SSE,149,0.0,2.0,71,0.00,,,0.00,WeatherCatV1.15B25,2013-06-03 23:20:00,
2013-06-03 16:25:00,59.7,50.3,29.81,SE,138,1.0,3.0,71,0.00,,,0.00,WeatherCatV1.15B25,2013-06-03 23:25:00,
2013-06-03 16:30:00,59.4,50.4,29.81,SE,125,0.0,1.0,72,0.00,,,0.00,WeatherCatV1.15B25,2013-06-03 23:30:00,
2013-06-03 16:35:00,59.3,50.3,29.81,SE,129,0.0,2.0,72,0.00,,,0.00,WeatherCatV1.15B25,2013-06-03 23:35:00,
2013-06-03 16:40:00,59.3,50.3,29.81,SE,131,0.0,1.0,72,0.00,,,0.00,WeatherCatV1.15B25,2013-06-03 23:40:00,
2013-06-03 16:45:00,59.2,50.2,29.81,SSE,152,1.0,1.0,72,0.00,,,0.00,WeatherCatV1.15B25,2013-06-03 23:45:00,
2013-06-03 16:50:00,59.0,50.0,29.81,NE,38,0.0,1.0,72,0.00,,,0.00,WeatherCatV1.15B25,2013-06-03 23:50:00,
2013-06-03 16:55:00,58.6,50.0,29.81,SE,134,1.0,2.0,73,0.00,,,0.00,WeatherCatV1.15B25,2013-06-03 23:55:00,
2013-06-03 17:00:00,58.4,50.1,29.81,SE,138,0.0,2.0,74,0.00,,,0.00,WeatherCatV1.15B25,2013-06-04 00:00:00,
2013-06-03 17:05:00,58.2,50.0,29.81,SE,146,1.0,2.0,74,0.00,,,0.00,WeatherCatV1.15B25,2013-06-04 00:05:00,
2013-06-03 17:10:00,58.1,50.2,29.81,SE,144,0.0,0.0,75,0.00,,,0.00,WeatherCatV1.15B25,2013-06-04 00:10:00,
2013-06-03 17:15:00,58.1,50.2,29.81,SE,145,0.0,2.0,75,0.00,,,0.00,WeatherCatV1.15B25,2013-06-04 00:15:00,
2013-06-03 17:20:00,58.0,49.8,29.81,South,175,0.0,1.0,74,0.00,,,0.00,WeatherCatV1.15B25,2013-06-04 00:20:00,
2013-06-03 17:25:00,57.8,49.9,29.81,ESE,105,0.0,1.0,75,0.00,,,0.00,WeatherCatV1.15B25,2013-06-04 00:25:00,
2013-06-03 17:30:00,57.6,49.7,29.81,SE,138,0.0,1.0,75,0.00,,,0.00,WeatherCatV1.15B25,2013-06-04 00:30:00,
2013-06-03 17:35:00,57.5,50.0,29.81,SE,138,0.0,1.0,76,0.00,,,0.00,WeatherCatV1.15B25,2013-06-04 00:35:00,
2013-06-03 17:40:00,57.5,49.6,29.81,SE,138,0.0,1.0,75,0.00,,,0.00,WeatherCatV1.15B25,2013-06-04 00:40:00,
2013-06-03 17:45:00,57.4,49.5,29.80,SE,139,0.0,2.0,75,0.00,,,0.00,WeatherCatV1.15B25,2013-06-04 00:45:00,
2013-06-03 17:50:00,57.2,49.3,29.80,SE,125,1.0,1.0,75,0.00,,,0.00,WeatherCatV1.15B25,2013-06-04 00:50:00,
2013-06-03 17:55:00,57.1,49.6,29.80,SE,139,0.0,2.0,76,0.00,,,0.00,WeatherCatV1.15B25,2013-06-04 00:55:00,
2013-06-03 18:00:00,56.9,49.4,29.80,SE,133,0.0,1.0,76,0.00,,,0.00,WeatherCatV1.15B25,2013-06-04 01:00:00,
2013-06-03 18:05:00,56.8,49.3,29.80,SE,127,0.0,0.0,76,0.00,,,0.00,WeatherCatV1.15B25,2013-06-04 01:05:00,
2013-06-03 18:10:00,56.6,49.5,29.80,SE,129,0.0,1.0,77,0.00,,,0.00,WeatherCatV1.15B25,2013-06-04 01:10:00,
2013-06-03 18:15:00,56.4,49.3,29.80,SE,127,1.0,1.0,77,0.00,,,0.00,WeatherCatV1.15B25,2013-06-04 01:15:00,
2013-06-03 18:20:00,56.3,49.2,29.80,SE,131,0.0,1.0,77,0.00,,,0.00,WeatherCatV1.15B25,2013-06-04 01:20:00,
2013-06-03 18:25:00,56.2,49.1,29.80,SE,131,0.0,1.0,77,0.00,,,0.00,WeatherCatV1.15B25,2013-06-04 01:25:00,
2013-06-03 18:30:00,56.0,48.9,29.81,SE,137,0.0,1.0,77,0.00,,,0.00,WeatherCatV1.15B25,2013-06-04 01:30:00,
2013-06-03 18:35:00,56.0,48.9,29.81,SE,137,0.0,0.0,77,0.00,,,0.00,WeatherCatV1.15B25,2013-06-04 01:35:00,
2013-06-03 18:40:00,55.9,49.1,29.81,SE,137,0.0,0.0,78,0.00,,,0.00,WeatherCatV1.15B25,2013-06-04 01:40:00,
2013-06-03 18:45:00,55.8,49.0,29.82,SE,137,0.0,0.0,78,0.00,,,0.00,WeatherCatV1.15B25,2013-06-04 01:45:00,
2013-06-03 18:50:00,55.7,48.9,29.82,SE,137,0.0,1.0,78,0.00,,,0.00,WeatherCatV1.15B25,2013-06-04 01:50:00,
2013-06-03 18:55:00,55.6,48.8,29.82,SE,134,0.0,0.0,78,0.00,,,0.00,WeatherCatV1.15B25,2013-06-04 01:55:00,
2013-06-03 19:00:00,55.4,49.0,29.82,SE,134,0.0,0.0,79,0.00,,,0.00,WeatherCatV1.15B25,2013-06-04 02:00:00,
2013-06-03 19:05:00,55.2,48.8,29.82,SE,134,0.0,0.0,79,0.00,,,0.00,WeatherCatV1.15B25,2013-06-04 02:05:00,
2013-06-03 19:10:00,55.1,48.7,29.82,SE,134,0.0,0.0,79,0.00,,,0.00,WeatherCatV1.15B25,2013-06-04 02:10:00,
2013-06-03 19:15:00,54.9,48.5,29.82,SE,134,0.0,0.0,79,0.00,,,0.00,WeatherCatV1.15B25,2013-06-04 02:15:00,
2013-06-03 19:20:00,54.6,48.6,29.82,SE,133,0.0,0.0,80,0.00,,,0.00,WeatherCatV1.15B25,2013-06-04 02:20:00,
2013-06-03 19:25:00,54.4,48.4,29.82,SE,133,0.0,0.0,80,0.00,,,0.00,WeatherCatV1.15B25,2013-06-04 02:25:00,
2013-06-03 19:30:00,54.2,48.2,29.82,SE,133,0.0,0.0,80,0.00,,,0.00,WeatherCatV1.15B25,2013-06-04 02:30:00,
2013-06-03 19:35:00,54.1,48.4,29.82,SE,133,0.0,0.0,81,0.00,,,0.00,WeatherCatV1.15B25,2013-06-04 02:35:00,
2013-06-03 19:40:00,53.9,48.2,29.82,SE,133,0.0,0.0,81,0.00,,,0.00,WeatherCatV1.15B25,2013-06-04 02:40:00,
2013-06-03 19:45:00,53.7,48.0,29.82,SE,133,0.0,0.0,81,0.00,,,0.00,WeatherCatV1.15B25,2013-06-04 02:45:00,
2013-06-03 19:50:00,53.5,48.1,29.82,SE,133,0.0,0.0,82,0.00,,,0.00,WeatherCatV1.15B25,2013-06-04 02:50:00,
2013-06-03 19:55:00,53.3,47.9,29.82,SE,133,0.0,0.0,82,0.00,,,0.00,WeatherCatV1.15B25,2013-06-04 02:55:00,
2013-06-03 20:00:00,53.1,47.8,29.82,SE,133,0.0,0.0,82,0.00,,,0.00,WeatherCatV1.15B25,2013-06-04 03:00:00,
2013-06-03 20:05:00,52.9,47.6,29.82,SE,133,0.0,0.0,82,0.00,,,0.00,WeatherCatV1.15B25,2013-06-04 03:05:00,
2013-06-03 20:10:00,52.7,47.7,29.82,SE,133,0.0,0.0,83,0.00,,,0.00,WeatherCatV1.15B25,2013-06-04 03:10:00,
2013-06-03 20:15:00,52.5,47.5,29.83,SE,133,0.0,0.0,83,0.00,,,0.00,WeatherCatV1.15B25,2013-06-04 03:15:00,
2013-06-03 20:20:00,52.3,47.6,29.83,SE,133,0.0,0.0,84,0.00,,,0.00,WeatherCatV1.15B25,2013-06-04 03:20:00,
2013-06-03 20:25:00,52.1,47.4,29.83,SE,133,0.0,0.0,84,0.00,,,0.00,WeatherCatV1.15B25,2013-06-04 03:25:00,
2013-06-03 20:30:00,51.9,47.2,29.83,SE,133,0.0,0.0,84,0.00,,,0.00,WeatherCatV1.15B25,2013-06-04 03:30:00,
2013-06-03 20:35:00,51.7,47.0,29.83,SE,133,0.0,0.0,84,0.00,,,0.00,WeatherCatV1.15B25,2013-06-04 03:35:00,
2013-06-03 20:40:00,51.5,47.1,29.83,SE,133,0.0,0.0,85,0.00,,,0.00,WeatherCatV1.15B25,2013-06-04 03:40:00,
2013-06-03 20:45:00,51.2,46.8,29.82,SE,133,0.0,0.0,85,0.00,,,0.00,WeatherCatV1.15B25,2013-06-04 03:45:00,
2013-06-03 20:50:00,51.0,46.7,29.82,SE,133,0.0,0.0,85,0.00,,,0.00,WeatherCatV1.15B25,2013-06-04 03:50:00,
2013-06-03 20:55:00,50.9,46.6,29.82,SE,133,0.0,0.0,85,0.00,,,0.00,WeatherCatV1.15B25,2013-06-04 03:55:00,
2013-06-03 21:00:00,50.8,46.8,29.82,SE,133,0.0,0.0,86,0.00,,,0.00,WeatherCatV1.15B25,2013-06-04 04:00:00,
2013-06-03 21:01:00,50.8,46.8,29.82,SE,133,0.0,0.0,86,0.00,,,0.00,WeatherCatV1.15B25,2013-06-04 04:01:00,
2013-06-03 21:02:00,50.7,46.7,29.82,SE,133,0.0,0.0,86,0.00,,,0.00,WeatherCatV1.15B25,2013-06-04 04:02:00,
2013-06-03 21:06:00,50.6,46.6,29.82,SE,133,0.0,0.0,86,0.00,,,0.00,WeatherCatV1.15B25,2013-06-04 04:06:00,
2013-06-03 21:11:00,50.5,46.5,29.82,SE,133,0.0,0.0,86,0.00,,,0.00,WeatherCatV1.15B25,2013-06-04 04:11:00,
2013-06-03 21:16:00,50.3,46.6,29.82,SE,133,0.0,0.0,87,0.00,,,0.00,WeatherCatV1.15B25,2013-06-04 04:16:00,
2013-06-03 21:21:00,50.2,46.5,29.82,SE,133,0.0,0.0,87,0.00,,,0.00,WeatherCatV1.15B25,2013-06-04 04:21:00,
2013-06-03 21:26:00,50.2,46.5,29.82,SE,133,0.0,0.0,87,0.00,,,0.00,WeatherCatV1.15B25,2013-06-04 04:26:00,
2013-06-03 21:31:00,50.2,46.5,29.82,SE,133,0.0,0.0,87,0.00,,,0.00,WeatherCatV1.15B25,2013-06-04 04:31:00,
2013-06-03 21:36:00,50.2,46.5,29.82,SE,133,0.0,0.0,87,0.00,,,0.00,WeatherCatV1.15B25,2013-06-04 04:36:00,
2013-06-03 21:41:00,50.1,46.7,29.82,SE,133,0.0,0.0,88,0.00,,,0.00,WeatherCatV1.15B25,2013-06-04 04:41:00,
2013-06-03 21:46:00,50.1,46.7,29.82,SE,133,0.0,0.0,88,0.00,,,0.00,WeatherCatV1.15B25,2013-06-04 04:46:00,
2013-06-03 21:51:00,50.1,46.7,29.82,SE,133,0.0,0.0,88,0.00,,,0.00,WeatherCatV1.15B25,2013-06-04 04:51:00,
2013-06-03 21:56:00,50.1,46.7,29.82,SE,133,0.0,0.0,88,0.00,,,0.00,WeatherCatV1.15B25,2013-06-04 04:56:00,
2013-06-03 22:01:00,50.1,46.7,29.82,SE,133,0.0,0.0,88,0.00,,,0.00,WeatherCatV1.15B25,2013-06-04 05:01:00,
2013-06-03 22:06:00,50.1,46.7,29.82,SE,133,0.0,0.0,88,0.00,,,0.00,WeatherCatV1.15B25,2013-06-04 05:06:00,
2013-06-03 22:11:00,50.1,46.7,29.82,SE,133,0.0,0.0,88,0.00,,,0.00,WeatherCatV1.15B25,2013-06-04 05:11:00,
2013-06-03 22:16:00,50.2,46.8,29.83,SE,133,0.0,0.0,88,0.00,,,0.00,WeatherCatV1.15B25,2013-06-04 05:16:00,
2013-06-03 22:21:00,50.2,46.8,29.83,SE,133,0.0,0.0,88,0.00,,,0.00,WeatherCatV1.15B25,2013-06-04 05:21:00,
2013-06-03 22:26:00,50.2,46.8,29.83,SE,133,0.0,0.0,88,0.00,,,0.00,WeatherCatV1.15B25,2013-06-04 05:26:00,
2013-06-03 22:31:00,50.3,46.9,29.83,SE,133,0.0,0.0,88,0.00,,,0.00,WeatherCatV1.15B25,2013-06-04 05:31:00,
2013-06-03 22:36:00,50.3,46.9,29.83,SE,133,0.0,0.0,88,0.00,,,0.00,WeatherCatV1.15B25,2013-06-04 05:36:00,
2013-06-03 22:41:00,50.3,46.9,29.83,SE,133,0.0,0.0,88,0.00,,,0.00,WeatherCatV1.15B25,2013-06-04 05:41:00,
2013-06-03 22:46:00,50.1,46.7,29.83,SE,133,0.0,0.0,88,0.00,,,0.00,WeatherCatV1.15B25,2013-06-04 05:46:00,
2013-06-03 22:51:00,49.9,46.8,29.83,SE,133,0.0,0.0,89,0.00,,,0.00,WeatherCatV1.15B25,2013-06-04 05:51:00,
2013-06-03 22:56:00,49.9,46.8,29.83,SE,133,0.0,0.0,89,0.00,,,0.00,WeatherCatV1.15B25,2013-06-04 05:56:00,
2013-06-03 23:01:00,49.9,46.8,29.83,SE,133,0.0,0.0,89,0.00,,,0.00,WeatherCatV1.15B25,2013-06-04 06:01:00,
2013-06-03 23:06:00,49.9,46.8,29.83,SE,133,0.0,0.0,89,0.00,,,0.00,WeatherCatV1.15B25,2013-06-04 06:06:00,
2013-06-03 23:11:00,49.8,46.7,29.83,SE,133,0.0,0.0,89,0.00,,,0.00,WeatherCatV1.15B25,2013-06-04 06:11:00,
2013-06-03 23:16:00,49.9,46.8,29.83,SE,133,0.0,0.0,89,0.00,,,0.00,WeatherCatV1.15B25,2013-06-04 06:16:00,
2013-06-03 23:21:00,49.8,46.7,29.83,SE,133,0.0,0.0,89,0.00,,,0.00,WeatherCatV1.15B25,2013-06-04 06:21:00,
2013-06-03 23:26:00,49.9,46.8,29.83,SE,133,0.0,0.0,89,0.00,,,0.00,WeatherCatV1.15B25,2013-06-04 06:26:00,
2013-06-03 23:31:00,49.9,46.8,29.83,SE,133,0.0,0.0,89,0.00,,,0.00,WeatherCatV1.15B25,2013-06-04 06:31:00,
2013-06-03 23:36:00,49.8,46.7,29.83,SE,133,0.0,0.0,89,0.00,,,0.00,WeatherCatV1.15B25,2013-06-04 06:36:00,
2013-06-03 23:41:00,49.8,46.7,29.83,SE,133,0.0,0.0,89,0.00,,,0.00,WeatherCatV1.15B25,2013-06-04 06:41:00,
2013-06-03 23:46:00,49.7,46.6,29.83,SE,133,0.0,0.0,89,0.00,,,0.00,WeatherCatV1.15B25,2013-06-04 06:46:00,
2013-06-03 23:51:00,49.7,46.9,29.83,SE,133,0.0,0.0,90,0.00,,,0.00,WeatherCatV1.15B25,2013-06-04 06:51:00,
2013-06-03 23:56:00,49.6,46.8,29.83,SE,133,0.0,0.0,90,0.00,,,0.00,WeatherCatV1.15B25,2013-06-04 06:56:00,